createdAt,value
2022-12-05T09:29:15.855Z,57.10
2022-12-05T09:31:43.685Z,64.93
2022-12-05T09:34:10.754Z,58.70
2022-12-05T09:36:37.718Z,72.77
2022-12-05T09:39:06.619Z,38.47
2022-12-05T09:42:00.873Z,49.90
2022-12-05T09:44:36.697Z,48.00
2022-12-05T09:47:13.436Z,50.53
2022-12-05T09:49:49.968Z,57.40
2022-12-05T09:52:30.879Z,54.40
2022-12-05T09:55:04.950Z,55.83
2022-12-05T09:57:38.252Z,43.13
2022-12-05T10:00:07.165Z,48.00
2022-12-05T10:02:53.999Z,39.13
2022-12-05T10:05:37.660Z,55.73
2022-12-05T10:08:35.053Z,50.13
2022-12-05T10:11:07.257Z,58.37
2022-12-05T10:14:03.585Z,49.83
2022-12-05T10:16:48.611Z,46.13
2022-12-05T10:19:27.033Z,43.77
2022-12-05T10:22:02.893Z,43.03
2022-12-05T10:24:45.504Z,30.37
2022-12-05T10:27:40.027Z,36.77
2022-12-05T10:30:07.848Z,36.50
2022-12-05T10:32:42.503Z,31.97
2022-12-05T10:35:24.779Z,43.27
2022-12-05T10:37:55.859Z,48.27
2022-12-05T10:40:23.444Z,39.27
2022-12-05T10:42:51.076Z,41.23
2022-12-05T10:45:25.392Z,47.77
2022-12-05T10:47:57.295Z,32.13
2022-12-05T10:50:35.972Z,22.27
2022-12-05T10:53:05.202Z,38.20
2022-12-05T10:55:37.449Z,35.30
2022-12-05T10:58:25.308Z,32.40
2022-12-05T11:00:56.489Z,35.93
2022-12-05T11:03:28.347Z,40.10
2022-12-05T11:05:57.907Z,39.57
2022-12-05T11:08:55.833Z,34.93
2022-12-05T11:14:26.781Z,41.53
2022-12-05T11:16:59.457Z,42.57
2022-12-05T11:19:36.517Z,39.43
2022-12-05T11:22:05.031Z,33.63
2022-12-05T11:24:39.026Z,47.07
2022-12-05T11:27:18.168Z,36.93
2022-12-05T11:29:54.680Z,39.20
2022-12-05T11:32:25.398Z,28.73
2022-12-05T11:35:13.970Z,31.73
2022-12-05T11:37:52.325Z,30.47
2022-12-05T11:40:50.809Z,33.13
2022-12-05T11:43:39.112Z,33.63
2022-12-05T11:46:31.289Z,20.63
2022-12-05T11:49:11.769Z,21.57
2022-12-05T11:52:27.668Z,25.00
2022-12-05T11:55:20.515Z,28.63
2022-12-05T11:57:53.511Z,23.73
2022-12-05T12:00:31.085Z,22.83
2022-12-05T12:03:19.546Z,21.97
2022-12-05T12:06:18.851Z,21.20
2022-12-05T12:09:13.840Z,19.13
2022-12-05T12:12:08.643Z,20.83
2022-12-05T12:14:55.940Z,19.37
2022-12-05T12:17:43.302Z,20.50
2022-12-05T12:20:35.212Z,19.63
2022-12-05T12:23:11.414Z,16.97
2022-12-05T12:26:02.265Z,19.23
2022-12-05T12:28:39.468Z,18.13
2022-12-05T12:31:19.753Z,17.80
2022-12-05T12:33:58.465Z,17.90
2022-12-05T12:36:33.749Z,18.63
2022-12-05T12:39:14.859Z,18.70
2022-12-05T12:42:00.578Z,17.83
2022-12-05T12:44:46.177Z,18.43
2022-12-05T12:47:50.718Z,18.43
2022-12-05T12:50:31.775Z,18.03
2022-12-05T12:53:07.840Z,18.57
2022-12-05T12:55:48.145Z,17.80
2022-12-05T12:58:26.748Z,17.80
2022-12-05T13:01:15.882Z,18.30
2022-12-05T13:04:12.565Z,17.90
2022-12-05T13:06:45.613Z,18.33
2022-12-05T13:09:16.719Z,18.77
2022-12-05T13:11:46.007Z,18.13
2022-12-05T13:14:16.015Z,18.40
2022-12-05T13:16:49.037Z,17.83
2022-12-05T13:19:37.780Z,18.57
2022-12-05T13:22:06.325Z,18.73
2022-12-05T13:24:33.534Z,18.43
2022-12-05T13:27:02.763Z,19.43
2022-12-05T13:29:48.949Z,17.77
2022-12-05T13:32:27.928Z,18.80
2022-12-05T13:34:57.371Z,18.23
2022-12-05T13:37:48.721Z,17.80
2022-12-05T13:40:45.381Z,17.50
2022-12-05T13:43:14.748Z,16.90
2022-12-05T13:45:51.339Z,17.13
2022-12-05T13:48:25.472Z,17.33
2022-12-05T13:51:02.016Z,17.23
2022-12-05T13:53:40.454Z,17.70
2022-12-05T13:56:45.295Z,17.03
2022-12-05T13:59:12.003Z,17.00
2022-12-05T14:01:55.390Z,18.20
2022-12-05T14:04:45.226Z,18.63
2022-12-05T14:07:12.032Z,17.57
2022-12-05T14:09:55.271Z,17.97
2022-12-05T14:12:22.012Z,18.13
2022-12-05T14:14:58.100Z,18.03
2022-12-05T14:17:28.765Z,17.57
2022-12-05T14:20:15.842Z,17.93
2022-12-05T14:22:45.317Z,17.97
2022-12-05T14:25:51.610Z,18.40
2022-12-05T14:28:40.427Z,17.07
2022-12-05T14:31:25.127Z,17.80
2022-12-05T14:34:22.307Z,18.87
2022-12-05T14:37:14.542Z,17.67
2022-12-05T14:39:51.693Z,17.73
2022-12-05T14:42:35.716Z,17.80
2022-12-05T14:45:25.344Z,18.50
2022-12-05T14:47:55.371Z,18.10
2022-12-05T14:50:36.825Z,17.53
2022-12-05T14:53:15.763Z,17.37
2022-12-05T14:55:46.388Z,17.97
2022-12-05T14:58:41.709Z,17.77
2022-12-05T15:01:14.919Z,17.03
2022-12-05T15:03:56.319Z,17.00
2022-12-05T15:06:25.841Z,18.03
2022-12-05T15:09:14.504Z,17.70
2022-12-05T15:11:45.168Z,18.43
2022-12-05T15:14:20.402Z,18.20
2022-12-05T15:16:52.359Z,18.97
2022-12-05T15:19:47.616Z,18.33
2022-12-05T15:22:16.706Z,18.80
2022-12-05T15:24:43.596Z,17.70
2022-12-05T15:27:11.986Z,17.60
2022-12-05T15:29:40.431Z,17.80
2022-12-05T15:32:10.269Z,18.10
2022-12-05T15:34:45.458Z,17.60
2022-12-05T15:37:36.969Z,17.73
2022-12-05T15:40:09.477Z,18.10
2022-12-05T15:42:41.149Z,18.53
2022-12-05T15:45:13.955Z,17.20
2022-12-05T15:47:49.083Z,17.47
2022-12-05T15:50:22.235Z,17.47
2022-12-05T15:53:02.598Z,18.47
2022-12-05T15:55:38.203Z,18.30
2022-12-05T15:58:28.298Z,19.63
2022-12-05T16:01:09.150Z,19.43
2022-12-05T16:03:50.107Z,19.30
2022-12-05T16:06:39.194Z,17.80
2022-12-05T16:09:27.591Z,18.13
2022-12-05T16:12:01.623Z,17.87
2022-12-05T16:17:27.407Z,18.40
2022-12-05T16:19:54.193Z,18.30
2022-12-05T16:22:26.371Z,18.03
2022-12-05T16:25:04.692Z,17.87
2022-12-05T16:27:38.940Z,17.93
2022-12-05T16:30:23.076Z,18.27
2022-12-05T16:32:57.805Z,17.90
2022-12-05T16:35:42.480Z,17.83
2022-12-05T16:38:18.117Z,17.40
2022-12-05T16:40:59.789Z,17.70
2022-12-05T16:43:27.127Z,17.67
2022-12-05T16:45:57.089Z,17.70
2022-12-05T16:48:27.771Z,17.33
2022-12-05T16:51:17.255Z,18.07
2022-12-05T16:53:46.235Z,18.20
2022-12-05T16:56:23.436Z,17.70
2022-12-05T16:58:50.143Z,17.33
2022-12-05T17:01:23.733Z,17.63
2022-12-05T17:03:51.325Z,17.90
2022-12-05T17:06:26.998Z,18.67
2022-12-05T17:08:54.974Z,18.80
2022-12-05T17:11:30.896Z,19.13
2022-12-05T17:13:58.502Z,17.60
2022-12-05T17:16:26.641Z,17.63
2022-12-05T17:18:53.690Z,17.53
2022-12-05T17:21:23.832Z,18.30
2022-12-05T17:23:51.821Z,17.27
2022-12-05T17:26:21.099Z,17.57
2022-12-05T17:28:48.047Z,17.37
2022-12-05T17:31:23.141Z,17.93
2022-12-05T17:33:51.778Z,18.70
2022-12-05T17:36:21.122Z,18.43
2022-12-05T17:38:48.541Z,18.27
2022-12-05T17:41:23.097Z,17.60
2022-12-05T17:43:51.404Z,17.93
2022-12-05T17:46:20.873Z,17.90
2022-12-05T17:48:48.718Z,17.77
2022-12-05T17:51:15.837Z,18.40
2022-12-05T17:53:44.556Z,18.60
2022-12-05T17:56:12.679Z,18.70
2022-12-05T17:58:40.269Z,17.93
2022-12-05T18:01:08.080Z,17.50
2022-12-05T18:03:34.917Z,17.50
2022-12-05T18:06:03.825Z,17.60
2022-12-05T18:08:30.731Z,17.73
2022-12-05T18:10:58.298Z,18.53
2022-12-05T18:13:25.329Z,18.07
2022-12-05T18:15:57.225Z,18.43
2022-12-05T18:18:27.454Z,18.00
2022-12-05T18:20:54.216Z,16.93
2022-12-05T18:23:21.017Z,17.20
2022-12-05T18:25:58.324Z,17.37
2022-12-05T18:28:25.105Z,17.40
2022-12-05T18:31:02.476Z,16.37
2022-12-05T18:33:29.212Z,18.07
2022-12-05T18:35:55.892Z,18.20
2022-12-05T18:38:22.575Z,17.93
2022-12-05T18:40:49.452Z,17.47
2022-12-05T18:43:16.121Z,17.03
2022-12-05T18:45:42.874Z,18.50
2022-12-05T18:48:31.413Z,19.57
2022-12-05T18:51:05.889Z,18.30
2022-12-05T18:53:33.081Z,19.00
2022-12-05T18:56:26.859Z,17.90
2022-12-05T18:58:59.341Z,18.87
2022-12-05T19:01:27.831Z,18.80
2022-12-05T19:04:00.222Z,18.63
2022-12-05T19:06:29.829Z,19.97
2022-12-05T19:08:58.400Z,18.50
2022-12-05T19:11:26.453Z,18.43
2022-12-05T19:14:00.457Z,18.47
2022-12-05T19:16:28.487Z,17.53
2022-12-05T19:18:58.274Z,16.93
2022-12-05T19:21:27.048Z,17.47
2022-12-05T19:23:54.628Z,17.30
2022-12-05T19:26:21.940Z,17.37
2022-12-05T19:28:51.790Z,16.70
2022-12-05T19:31:31.029Z,17.33
2022-12-05T19:34:02.463Z,19.17
2022-12-05T19:36:57.463Z,18.80
2022-12-05T19:39:26.774Z,16.70
2022-12-05T19:41:59.974Z,17.50
2022-12-05T19:44:27.455Z,15.33
2022-12-05T19:46:54.931Z,15.47
2022-12-05T19:49:23.100Z,16.13
2022-12-05T19:51:50.343Z,15.33
2022-12-05T19:54:20.630Z,15.40
2022-12-05T19:56:53.393Z,16.40
2022-12-05T19:59:21.254Z,15.73
2022-12-05T20:01:48.054Z,16.47
2022-12-05T20:04:16.192Z,15.67
2022-12-05T20:06:45.214Z,16.23
2022-12-05T20:09:17.571Z,15.73
2022-12-05T20:11:55.135Z,17.27
2022-12-05T20:14:24.263Z,15.53
2022-12-05T20:16:53.648Z,15.30
2022-12-05T20:19:20.764Z,14.77
2022-12-05T20:21:47.462Z,13.60
2022-12-05T20:24:14.299Z,13.63
2022-12-05T20:26:44.822Z,13.57
2022-12-05T20:29:11.792Z,14.70
2022-12-05T20:31:41.342Z,14.53
2022-12-05T20:34:10.528Z,15.07
2022-12-05T20:36:37.349Z,14.83
2022-12-05T20:39:05.754Z,15.10
2022-12-05T20:41:32.827Z,16.10
2022-12-05T20:44:02.256Z,15.03
2022-12-05T20:46:32.827Z,15.13
2022-12-05T20:48:59.614Z,15.40
2022-12-05T20:51:30.907Z,14.83
2022-12-05T20:53:59.079Z,14.90
2022-12-05T20:56:31.682Z,15.63
2022-12-05T20:59:05.148Z,14.80
2022-12-05T21:01:34.252Z,14.50
2022-12-05T21:04:01.927Z,14.80
2022-12-05T21:06:29.831Z,15.80
2022-12-05T21:08:57.281Z,15.40
2022-12-05T21:11:25.121Z,14.87
2022-12-05T21:13:52.296Z,14.73
2022-12-05T21:16:20.990Z,15.03
2022-12-05T21:18:48.212Z,14.83
2022-12-05T21:21:20.451Z,14.83
2022-12-05T21:23:53.062Z,16.00
2022-12-05T21:26:21.908Z,15.50
2022-12-05T21:28:48.823Z,15.90
2022-12-05T21:31:19.395Z,14.77
2022-12-05T21:33:49.104Z,16.07
2022-12-05T21:36:16.436Z,15.70
2022-12-05T21:38:43.367Z,15.90
2022-12-05T21:41:10.143Z,16.20
2022-12-05T21:43:37.139Z,16.10
2022-12-05T21:46:05.455Z,15.80
2022-12-05T21:48:33.295Z,15.97
2022-12-05T21:51:00.930Z,16.40
2022-12-05T21:53:27.669Z,16.97
2022-12-05T21:56:10.876Z,15.90
2022-12-05T21:58:42.707Z,16.00
2022-12-05T22:01:11.186Z,16.07
2022-12-05T22:03:38.485Z,16.57
2022-12-05T22:06:08.897Z,17.03
2022-12-05T22:08:36.776Z,16.33
2022-12-05T22:11:08.393Z,17.17
2022-12-05T22:13:36.465Z,16.67
2022-12-05T22:16:04.297Z,17.53
2022-12-05T22:18:31.297Z,16.57
2022-12-05T22:21:04.128Z,17.03
2022-12-05T22:23:32.635Z,17.50
2022-12-05T22:26:02.045Z,17.90
2022-12-05T22:28:29.632Z,17.40
2022-12-05T22:30:57.859Z,17.90
2022-12-05T22:33:25.613Z,16.93
2022-12-05T22:35:58.715Z,17.63
2022-12-05T22:38:32.493Z,17.17
2022-12-05T22:41:05.143Z,17.20
2022-12-05T22:43:32.710Z,18.10
2022-12-05T22:46:07.668Z,17.27
2022-12-05T22:48:34.901Z,16.87
2022-12-05T22:51:02.461Z,17.30
2022-12-05T22:53:30.437Z,17.23
2022-12-05T22:56:06.523Z,17.70
2022-12-05T22:58:33.801Z,17.97
2022-12-05T23:01:15.461Z,17.13
2022-12-05T23:03:43.884Z,17.20
2022-12-05T23:06:12.443Z,16.73
2022-12-05T23:08:40.815Z,17.30
2022-12-05T23:11:08.510Z,17.37
2022-12-05T23:13:36.055Z,17.83
2022-12-05T23:16:11.179Z,17.43
2022-12-05T23:18:47.963Z,17.00
2022-12-05T23:21:34.684Z,16.87
2022-12-05T23:24:04.550Z,17.10
2022-12-05T23:26:35.272Z,16.43
2022-12-05T23:29:02.062Z,16.50
2022-12-05T23:31:29.114Z,17.43
2022-12-05T23:34:01.312Z,17.17
2022-12-05T23:36:30.078Z,16.90
2022-12-05T23:38:56.790Z,16.37
2022-12-05T23:41:26.071Z,16.60
2022-12-05T23:43:53.587Z,16.10
2022-12-05T23:46:22.816Z,17.03
2022-12-05T23:48:49.662Z,16.57
2022-12-05T23:51:19.289Z,16.60
2022-12-05T23:53:48.418Z,17.27
2022-12-05T23:56:19.051Z,16.63
2022-12-05T23:58:46.423Z,16.90
